Time;durP1;ratioP1;P1;durP2;ratioP2;P2;SDS_P1;SDS_P2;PMS_P1;PMS_P2;Temp;Humidity;BMP_temperature;BMP_pressure;BME280_temperature;BME280_humidity;BME280_pressure;Samples;Min_cycle;Max_cycle;Signal;HPM_P1;HPM_P2
2023/09/12 00:00:29;;;;;;;;;;;23.40;40.90;;;22.94;40.61;100803.16;12152858;19;19923;-85
2023/09/12 00:04:30;;;;;;;;;;;23.30;40.90;;;22.94;40.56;100821.00;12155352;19;20418;-85
2023/09/12 00:08:32;;;;;;;;;;;23.30;41.00;;;22.87;40.67;100822.63;12155932;19;20329;-85
2023/09/12 00:12:33;;;;;;;;;;;23.20;41.00;;;22.76;40.78;100823.75;12152913;19;19929;-85
2023/09/12 00:16:35;;;;;;;;;;;23.20;41.00;;;22.56;40.41;100793.91;12153896;19;20002;-85
2023/09/12 00:20:36;;;;;;;;;;;23.10;41.40;;;22.70;40.60;100822.56;12147766;19;19915;-84
2023/09/12 00:24:38;;;;;;;;;;;23.10;41.10;;;22.64;40.89;100825.06;12152559;19;19942;-85
2023/09/12 00:28:40;;;;;;;;;;;23.00;41.10;;;22.54;40.54;100817.19;12150456;19;19915;-84
2023/09/12 00:32:41;;;;;;;;;;;22.90;41.10;;;22.49;40.50;100820.38;12148726;19;19929;-85
2023/09/12 00:36:43;;;;;;;;;;;22.90;41.20;;;22.40;41.03;100812.50;12149292;19;20218;-85
2023/09/12 00:40:45;;;;;;;;;;;22.90;41.30;;;22.36;40.63;100821.78;12146426;19;20447;-85
2023/09/12 00:44:46;;;;;;;;;;;22.80;41.20;;;22.32;40.77;100823.94;12152291;19;20711;-85
2023/09/12 00:48:49;;;;;;;;;;;22.70;41.30;;;22.24;40.69;100818.56;12149336;19;19927;-85
2023/09/12 00:52:50;;;;;;;;;;;22.60;41.20;;;22.17;40.97;100823.66;12152072;19;19934;-85
2023/09/12 00:56:51;;;;;;;;;;;22.50;41.30;;;22.09;40.67;100816.47;12151094;19;20219;-85
2023/09/12 01:00:54;;;;;;;;;;;22.50;41.30;;;22.01;41.05;100811.09;12147504;19;19956;-85
2023/09/12 02:00:42;;;;;;;;;;;21.80;42.00;;;21.24;41.51;100795.88;12145130;19;19923;-85
2023/09/12 02:05:22;;;;;;;;;;;21.80;42.00;;;21.32;41.82;100820.66;12149755;19;21173;-85
2023/09/12 02:09:25;;;;;;;;;;;21.80;41.90;;;21.23;41.99;100808.31;12146836;19;20452;-85
2023/09/12 02:13:27;;;;;;;;;;;21.70;42.30;;;21.15;41.97;100798.44;12147919;19;19951;-85
2023/09/12 02:17:29;;;;;;;;;;;21.70;42.00;;;21.04;42.11;100790.72;12145576;19;20205;-85
2023/09/12 02:21:30;;;;;;;;;;;21.60;41.90;;;21.11;41.56;100798.88;12142370;19;19930;-85
2023/09/12 02:25:32;;;;;;;;;;;21.50;41.90;;;20.95;41.83;100786.28;12148769;19;19923;-85
2023/09/12 02:29:34;;;;;;;;;;;21.50;42.00;;;20.99;41.91;100792.97;12145912;19;19926;-85
2023/09/12 02:33:36;;;;;;;;;;;21.50;42.10;;;20.93;41.70;100791.75;12146161;19;20381;-85
2023/09/12 02:37:38;;;;;;;;;;;21.40;42.10;;;20.88;42.12;100785.22;12146881;19;19934;-85
2023/09/12 02:41:40;;;;;;;;;;;21.40;42.10;;;20.90;42.07;100794.72;12144372;19;19919;-85
2023/09/12 02:45:42;;;;;;;;;;;21.40;42.20;;;20.87;42.08;100789.69;12148416;19;20002;-85
2023/09/12 02:49:44;;;;;;;;;;;21.30;42.10;;;20.74;41.97;100775.97;12147587;19;19931;-86
2023/09/12 02:53:46;;;;;;;;;;;21.30;42.10;;;20.78;42.37;100788.78;12145268;19;20187;-85
2023/09/12 02:57:48;;;;;;;;;;;21.30;42.10;;;20.69;42.12;100786.19;12144911;19;20268;-85
2023/09/12 03:01:50;;;;;;;;;;;21.20;42.20;;;20.73;41.93;100792.84;12141936;19;19914;-85
2023/09/12 03:05:59;;;;;;;;;;;21.20;42.20;;;20.71;42.36;100794.81;12141773;19;19926;-85
2023/09/12 03:10:01;;;;;;;;;;;21.20;42.20;;;20.63;42.36;100777.00;12138213;19;19922;-85
2023/09/12 03:14:03;;;;;;;;;;;21.20;42.30;;;20.55;42.46;100782.22;12142263;19;20310;-85
2023/09/12 03:18:09;;;;;;;;;;;21.10;42.20;;;20.51;42.37;100778.97;12142135;19;19915;-85
2023/09/12 03:22:12;;;;;;;;;;;21.10;42.20;;;20.45;42.21;100770.78;12137136;19;19922;-85
2023/09/12 03:26:14;;;;;;;;;;;21.00;42.20;;;20.42;42.27;100779.88;12143177;19;19919;-85
2023/09/12 03:30:16;;;;;;;;;;;21.00;42.30;;;20.38;42.77;100775.00;12138207;19;20415;-85
2023/09/12 03:34:18;;;;;;;;;;;20.90;42.40;;;20.34;42.62;100775.31;12139466;19;19951;-85
2023/09/12 03:38:19;;;;;;;;;;;20.90;42.50;;;20.36;42.45;100782.28;12140371;19;19923;-85
2023/09/12 03:42:21;;;;;;;;;;;20.90;42.40;;;20.21;42.30;100763.38;12136081;19;20450;-85
2023/09/12 03:46:23;;;;;;;;;;;20.80;42.40;;;20.28;42.40;100789.16;12139348;19;19919;-85
2023/09/12 03:50:24;;;;;;;;;;;20.70;42.60;;;20.24;42.84;100790.41;12136246;19;19986;-85
2023/09/12 03:54:26;;;;;;;;;;;20.70;42.50;;;20.13;42.61;100766.75;12139307;19;19926;-85
2023/09/12 03:58:29;;;;;;;;;;;20.70;42.50;;;20.17;42.60;100777.88;12135889;19;19915;-85
2023/09/12 04:02:30;;;;;;;;;;;20.70;42.60;;;20.21;42.83;100785.41;12132559;19;19923;-85
2023/09/12 04:06:32;;;;;;;;;;;20.70;42.60;;;20.17;42.75;100791.16;12142290;19;20303;-85
2023/09/12 04:10:34;;;;;;;;;;;20.70;42.60;;;20.13;42.73;100779.16;12146018;19;19926;-86
2023/09/12 04:14:36;;;;;;;;;;;20.70;42.60;;;20.18;42.95;100792.84;12150016;19;20187;-85
2023/09/12 04:18:38;;;;;;;;;;;20.70;42.60;;;20.09;42.95;100783.91;12148052;19;19915;-85
2023/09/12 04:22:41;;;;;;;;;;;20.70;42.70;;;20.09;43.13;100781.25;12150118;19;19922;-85
2023/09/12 04:26:44;;;;;;;;;;;20.70;42.70;;;20.04;42.95;100786.19;12149989;19;19925;-85
2023/09/12 04:30:45;;;;;;;;;;;20.70;42.70;;;20.16;43.14;100806.22;12144338;19;19923;-85
2023/09/12 04:34:47;;;;;;;;;;;20.70;42.70;;;20.09;42.76;100800.69;12145542;19;19923;-85
2023/09/12 04:38:49;;;;;;;;;;;20.70;42.70;;;20.09;42.81;100800.69;12150465;19;20604;-85
2023/09/12 04:42:50;;;;;;;;;;;20.70;42.70;;;20.05;42.82;100803.75;12151344;19;20020;-85
2023/09/12 04:46:52;;;;;;;;;;;20.70;42.70;;;20.01;43.03;100802.34;12150073;19;20693;-85
2023/09/12 04:50:55;;;;;;;;;;;20.60;42.70;;;19.81;43.12;100777.72;12145925;19;20287;-85
2023/09/12 04:54:57;;;;;;;;;;;20.60;42.70;;;19.74;42.90;100766.03;12149848;19;20365;-85
2023/09/12 04:58:58;;;;;;;;;;;20.60;42.80;;;19.95;43.30;100803.78;12150411;19;20216;-85
2023/09/12 05:03:02;;;;;;;;;;;20.60;42.80;;;19.88;43.26;100803.53;12151842;19;19919;-85
2023/09/12 05:07:04;;;;;;;;;;;20.50;42.80;;;19.83;42.97;100805.75;12150726;19;19937;-86
2023/09/12 05:11:05;;;;;;;;;;;20.40;43.00;;;19.76;43.15;100799.34;12146904;19;20009;-85
2023/09/12 05:15:07;;;;;;;;;;;20.40;43.10;;;19.74;43.29;100800.47;12148891;19;20242;-85
2023/09/12 05:19:09;;;;;;;;;;;20.30;42.90;;;19.74;43.34;100808.41;12147225;19;19922;-85
2023/09/12 05:23:10;;;;;;;;;;;20.30;43.00;;;19.73;43.18;100810.25;12151117;19;19922;-86
2023/09/12 05:27:12;;;;;;;;;;;20.30;43.20;;;19.72;43.26;100810.41;12150340;19;19918;-85
2023/09/12 05:31:14;;;;;;;;;;;20.30;43.30;;;19.73;43.45;100807.59;12151229;19;20211;-86
2023/09/12 05:35:16;;;;;;;;;;;20.30;43.30;;;19.64;43.43;100805.78;12151009;19;19919;-85
2023/09/12 05:39:18;;;;;;;;;;;20.30;43.50;;;19.71;43.53;100811.34;12144785;19;19943;-86
2023/09/12 05:43:20;;;;;;;;;;;20.30;43.40;;;19.71;43.70;100822.78;12145086;19;19929;-85
2023/09/12 05:47:22;;;;;;;;;;;20.30;43.50;;;19.38;43.81;100769.25;12146643;19;19923;-86
2023/09/12 05:51:25;;;;;;;;;;;20.30;43.50;;;19.70;43.89;100815.81;12141557;19;20030;-85
2023/09/12 05:55:26;;;;;;;;;;;20.30;43.60;;;19.73;43.87;100820.00;12144118;19;19915;-84
2023/09/12 05:59:28;;;;;;;;;;;20.40;43.70;;;19.78;43.77;100813.31;12135925;19;20724;-86
2023/09/12 06:03:30;;;;;;;;;;;20.50;43.90;;;19.83;43.98;100834.91;12141727;19;19923;-85
2023/09/12 06:07:32;;;;;;;;;;;20.50;44.00;;;19.84;43.63;100833.09;12139704;19;19933;-85
2023/09/12 06:11:34;;;;;;;;;;;20.50;44.10;;;19.84;43.98;100825.97;12137836;19;19933;-85
2023/09/12 06:15:35;;;;;;;;;;;20.60;44.30;;;19.97;43.88;100830.16;12139979;19;19922;-85
2023/09/12 06:19:37;;;;;;;;;;;20.60;44.30;;;19.87;43.87;100811.59;12140403;19;19937;-86
2023/09/12 06:23:38;;;;;;;;;;;20.70;44.40;;;20.07;43.92;100820.38;12140965;19;19923;-86
2023/09/12 06:27:40;;;;;;;;;;;20.80;44.60;;;20.16;43.95;100823.97;12138851;19;20302;-86
2023/09/12 06:31:42;;;;;;;;;;;20.80;44.80;;;20.21;44.22;100819.88;12135352;19;19940;-86
2023/09/12 06:35:43;;;;;;;;;;;20.90;44.80;;;20.25;44.20;100815.97;12135797;19;19933;-83
2023/09/12 06:39:49;;;;;;;;;;;21.00;44.80;;;20.29;44.26;100820.00;12132537;19;19926;-83
2023/09/12 06:43:51;;;;;;;;;;;21.10;44.90;;;20.44;44.51;100841.59;12130013;19;20844;-82
2023/09/12 06:47:52;;;;;;;;;;;21.20;45.10;;;20.57;44.23;100841.25;12124814;19;19919;-82
2023/09/12 06:51:54;;;;;;;;;;;21.30;45.40;;;20.58;44.49;100835.00;12126364;19;19944;-83
2023/09/12 06:55:57;;;;;;;;;;;21.50;45.40;;;20.80;44.59;100857.66;12126517;19;20830;-82
2023/09/12 06:59:58;;;;;;;;;;;21.60;45.60;;;20.90;44.91;100852.25;12124198;19;19922;-83
2023/09/12 07:04:00;;;;;;;;;;;21.70;45.50;;;21.00;44.62;100850.41;12125939;19;20315;-83
2023/09/12 07:08:02;;;;;;;;;;;21.90;45.60;;;21.18;45.01;100858.41;12124744;19;20326;-82
2023/09/12 07:12:05;;;;;;;;;;;22.00;45.40;;;21.34;44.74;100865.69;12129448;19;19926;-82
2023/09/12 07:16:06;;;;;;;;;;;22.20;45.40;;;21.47;44.84;100855.56;12129797;19;19927;-83
2023/09/12 07:20:11;;;;;;;;;;;22.30;45.50;;;21.58;45.22;100851.84;12125193;19;19998;-82
2023/09/12 07:24:13;;;;;;;;;;;22.50;45.60;;;21.79;45.39;100865.63;12119907;19;20128;-82
2023/09/12 07:28:15;;;;;;;;;;;22.70;46.80;;;22.02;45.40;100868.59;12119318;19;19926;-82
2023/09/12 07:32:17;;;;;;;;;;;22.90;45.80;;;22.27;45.29;100868.78;12124088;19;19927;-82
2023/09/12 07:36:18;;;;;;;;;;;23.10;45.70;;;22.46;45.53;100865.91;12127760;19;19915;-83
2023/09/12 07:40:20;;;;;;;;;;;23.40;45.80;;;22.68;45.22;100856.53;12126849;19;20024;-82
2023/09/12 07:44:21;;;;;;;;;;;23.70;45.70;;;22.93;45.74;100853.97;12134220;19;19927;-83
2023/09/12 07:48:23;;;;;;;;;;;23.90;45.50;;;23.18;45.71;100853.03;12135132;19;19951;-82
2023/09/12 07:52:25;;;;;;;;;;;24.20;45.50;;;23.36;45.87;100833.41;12137920;19;20411;-82
2023/09/12 07:56:27;;;;;;;;;;;24.50;45.50;;;23.69;45.64;100844.91;12138949;19;20080;-82
2023/09/12 08:00:29;;;;;;;;;;;24.80;45.40;;;23.93;46.08;100844.09;12130520;19;20726;-82
2023/09/12 08:04:30;;;;;;;;;;;25.10;45.40;;;24.24;45.93;100849.50;12132667;19;19930;-82
2023/09/12 08:08:32;;;;;;;;;;;25.40;45.20;;;24.53;45.63;100853.47;12131839;19;20239;-82
2023/09/12 08:12:35;;;;;;;;;;;25.70;45.30;;;24.78;45.81;100856.84;12133688;19;19923;-82
2023/09/12 08:16:36;;;;;;;;;;;26.00;45.00;;;25.07;45.62;100866.06;12136449;19;20189;-83
2023/09/12 08:20:38;;;;;;;;;;;26.30;45.10;;;25.33;45.70;100849.69;12132499;19;19927;-82
2023/09/12 08:24:40;;;;;;;;;;;26.60;44.90;;;25.58;45.85;100851.19;12137571;19;19946;-82
2023/09/12 08:28:41;;;;;;;;;;;26.80;44.80;;;25.83;45.86;100853.66;12133201;19;20267;-82
2023/09/12 08:32:46;;;;;;;;;;;27.00;44.60;;;26.08;45.46;100859.63;12135419;19;20347;-82
2023/09/12 08:36:47;;;;;;;;;;;27.40;44.60;;;26.31;45.67;100861.41;12135629;19;19937;-83
2023/09/12 08:40:50;;;;;;;;;;;27.60;44.40;;;26.54;45.54;100867.50;12131787;19;21029;-82
2023/09/12 08:44:52;;;;;;;;;;;27.80;44.20;;;26.73;45.55;100850.00;12131086;19;19923;-83
2023/09/12 08:48:57;;;;;;;;;;;28.00;44.30;;;26.95;45.47;100848.22;12129800;19;20312;-82
2023/09/12 08:52:59;;;;;;;;;;;28.30;44.00;;;27.12;45.16;100840.78;12127012;19;19937;-82
2023/09/12 08:57:03;;;;;;;;;;;28.50;43.70;;;27.32;45.23;100841.81;12132259;19;19994;-82
2023/09/12 09:01:06;;;;;;;;;;;28.70;43.50;;;27.60;45.03;100854.47;12125329;19;19929;-82
2023/09/12 09:05:11;;;;;;;;;;;28.80;43.60;;;27.81;45.27;100858.97;12130636;19;19927;-82
2023/09/12 09:09:13;;;;;;;;;;;29.10;43.60;;;27.98;45.26;100849.63;12128846;19;20195;-82
2023/09/12 09:13:14;;;;;;;;;;;29.30;43.60;;;28.15;44.94;100846.63;12128660;19;20691;-82
2023/09/12 09:17:16;;;;;;;;;;;29.50;43.40;;;28.39;44.94;100856.91;12127492;19;20183;-82
2023/09/12 09:21:24;;;;;;;;;;;29.70;43.10;;;28.61;45.19;100862.19;12123302;19;19918;-82
2023/09/12 09:25:25;;;;;;;;;;;29.80;43.30;;;28.82;44.67;100861.25;12128077;19;19934;-81
2023/09/12 09:29:31;;;;;;;;;;;30.10;43.50;;;29.01;44.72;100865.84;12124353;19;19923;-82
2023/09/12 09:33:35;;;;;;;;;;;30.20;43.40;;;29.20;44.62;100869.66;12127423;19;20188;-82
2023/09/12 09:37:38;;;;;;;;;;;30.40;42.90;;;29.34;44.45;100865.13;12120424;19;19922;-82
2023/09/12 09:41:40;;;;;;;;;;;30.60;42.90;;;29.51;44.83;100860.16;12120304;19;20279;-82
2023/09/12 09:45:46;;;;;;;;;;;30.70;42.40;;;29.67;44.31;100856.28;12122900;19;19936;-82
2023/09/12 09:49:51;;;;;;;;;;;30.90;42.70;;;29.83;44.17;100866.63;12123682;19;20348;-82
2023/09/12 09:53:53;;;;;;;;;;;31.00;42.80;;;29.98;43.99;100864.53;12126204;19;20883;-82
2023/09/12 09:57:54;;;;;;;;;;;31.10;42.50;;;30.11;43.94;100869.09;12122587;19;19923;-83
2023/09/12 10:01:58;;;;;;;;;;;31.30;42.70;;;30.25;43.84;100866.41;12115340;19;19923;-83
2023/09/12 10:06:01;;;;;;;;;;;31.40;42.50;;;30.37;43.67;100862.81;12126424;19;19930;-82
2023/09/12 10:10:04;;;;;;;;;;;31.60;42.40;;;30.56;43.56;100865.66;12123322;19;20102;-83
2023/09/12 10:14:07;;;;;;;;;;;31.70;42.30;;;30.68;43.61;100869.34;12128204;19;19919;-83
2023/09/12 10:18:10;;;;;;;;;;;31.80;42.30;;;30.79;43.62;100855.19;12123396;19;20805;-82
2023/09/12 10:22:24;;;;;;;;;;;31.90;41.20;;;30.90;43.28;100848.31;12123929;19;19939;-81
2023/09/12 10:26:26;;;;;;;;;;;32.00;41.50;;;30.99;43.00;100855.09;12120758;19;19927;-82
2023/09/12 10:30:29;;;;;;;;;;;32.10;41.90;;;31.02;42.78;100845.75;12119769;19;20363;-83
2023/09/12 10:34:31;;;;;;;;;;;32.20;41.70;;;31.17;42.99;100853.56;12122679;19;19925;-82
2023/09/12 10:38:36;;;;;;;;;;;32.20;41.70;;;31.23;43.01;100847.28;12125796;19;20794;-82
2023/09/12 10:42:39;;;;;;;;;;;32.30;41.60;;;31.32;42.85;100840.56;12120093;19;20234;-82
2023/09/12 10:46:41;;;;;;;;;;;32.40;41.60;;;31.44;42.65;100840.75;12123108;19;20517;-82
2023/09/12 10:50:44;;;;;;;;;;;32.50;41.70;;;31.49;42.32;100830.13;12120024;19;20689;-82
2023/09/12 10:54:46;;;;;;;;;;;32.50;41.20;;;31.61;42.33;100833.72;12120828;19;20019;-82
2023/09/12 10:59:10;;;;;;;;;;;32.60;41.60;;;31.73;42.47;100837.38;12123574;19;19930;-82
2023/09/12 11:03:27;;;;;;;;;;;32.70;41.60;;;31.81;42.09;100838.13;12121283;19;19926;-81
2023/09/12 11:07:38;;;;;;;;;;;32.80;41.60;;;31.91;42.02;100841.13;12116566;19;20208;-81
2023/09/12 11:11:41;;;;;;;;;;;32.90;41.70;;;31.96;42.08;100830.53;12115175;19;20310;-81
2023/09/12 11:16:13;;;;;;;;;;;32.90;41.70;;;32.08;42.22;100830.59;12122659;19;20710;-82
2023/09/12 11:20:16;;;;;;;;;;;33.00;41.70;;;32.17;41.82;100830.09;12131052;19;20006;-81
2023/09/12 11:24:18;;;;;;;;;;;33.00;41.50;;;32.23;41.89;100828.34;12130792;19;19944;-81
2023/09/12 11:28:19;;;;;;;;;;;33.10;41.60;;;32.29;41.86;100821.22;12129404;19;20263;-81
2023/09/12 11:32:32;;;;;;;;;;;33.10;41.30;;;32.35;41.58;100815.75;12128745;19;19934;-81
2023/09/12 11:36:40;;;;;;;;;;;33.30;41.30;;;32.40;41.52;100812.34;12130089;19;20006;-81
2023/09/12 11:40:44;;;;;;;;;;;33.40;41.40;;;32.55;41.50;100818.22;12123808;19;19933;-81
2023/09/12 11:44:46;;;;;;;;;;;33.40;41.30;;;32.59;41.52;100814.03;12130988;19;20387;-81
2023/09/12 11:48:47;;;;;;;;;;;33.40;40.90;;;32.68;41.70;100824.53;12127331;19;20698;-81
2023/09/12 11:52:49;;;;;;;;;;;33.50;40.80;;;32.72;41.26;100807.59;12131165;19;20044;-80
2023/09/12 11:56:56;;;;;;;;;;;33.60;41.00;;;32.74;41.44;100800.06;12129657;19;19918;-81
2023/09/12 12:00:58;;;;;;;;;;;33.60;39.80;;;32.83;41.23;100814.91;12131628;19;19926;-82
2023/09/12 12:05:01;;;;;;;;;;;33.70;40.70;;;32.87;41.33;100811.78;12140057;19;21746;-82
2023/09/12 12:09:04;;;;;;;;;;;33.70;40.40;;;32.90;40.51;100814.03;12130208;19;19929;-82
2023/09/12 12:13:08;;;;;;;;;;;33.70;40.40;;;32.96;40.91;100811.19;12134478;19;19950;-82
2023/09/12 12:17:10;;;;;;;;;;;33.80;40.30;;;33.00;40.80;100816.97;12130694;19;20271;-81
2023/09/12 12:21:12;;;;;;;;;;;33.80;40.20;;;33.02;40.41;100809.47;12121854;19;19931;-82
2023/09/12 12:25:14;;;;;;;;;;;33.80;40.10;;;33.00;40.44;100806.13;12123817;19;19926;-82
2023/09/12 12:29:16;;;;;;;;;;;33.80;40.50;;;33.03;40.50;100805.75;12125011;19;19918;-82
2023/09/12 12:33:18;;;;;;;;;;;33.80;39.90;;;33.07;40.37;100804.19;12127680;19;20271;-82
2023/09/12 12:37:20;;;;;;;;;;;33.80;40.50;;;33.12;40.48;100808.94;12126133;19;19927;-81
2023/09/12 12:41:24;;;;;;;;;;;33.80;40.60;;;33.12;40.29;100798.09;12121525;19;19923;-81
2023/09/12 12:45:25;;;;;;;;;;;33.80;40.30;;;33.16;40.28;100801.97;12123388;19;19934;-82
2023/09/12 12:49:27;;;;;;;;;;;33.90;40.10;;;33.15;40.53;100786.81;12122915;19;20438;-81
2023/09/12 12:53:39;;;;;;;;;;;33.90;40.20;;;33.20;40.12;100789.66;12121957;19;19922;-81
2023/09/12 12:57:42;;;;;;;;;;;33.90;39.80;;;33.19;40.24;100787.97;12122620;19;19926;-82
2023/09/12 13:01:44;;;;;;;;;;;33.90;40.10;;;33.19;40.07;100782.56;12121877;19;19919;-81
2023/09/12 13:05:46;;;;;;;;;;;33.90;40.20;;;33.25;40.35;100792.47;12131419;19;19927;-82
2023/09/12 13:09:48;;;;;;;;;;;33.90;40.10;;;33.24;39.80;100785.41;12126148;19;20194;-83
2023/09/12 13:13:49;;;;;;;;;;;33.90;39.90;;;33.24;40.10;100791.66;12124919;19;19930;-81
2023/09/12 13:17:51;;;;;;;;;;;33.90;40.00;;;33.24;39.68;100790.81;12117484;19;19937;-82
2023/09/12 13:21:53;;;;;;;;;;;33.90;40.00;;;33.23;39.70;100783.75;12119008;19;20176;-81
2023/09/12 13:25:56;;;;;;;;;;;33.90;39.60;;;33.24;39.66;100788.09;12117496;19;19927;-81
2023/09/12 13:29:58;;;;;;;;;;;33.80;39.90;;;33.26;39.66;100788.69;12123964;19;19923;-82
2023/09/12 13:33:59;;;;;;;;;;;33.90;39.80;;;33.21;39.48;100786.69;12127140;19;19929;-82
2023/09/12 13:38:00;;;;;;;;;;;33.90;39.40;;;33.26;39.34;100786.00;12120478;19;20673;-81
2023/09/12 13:42:08;;;;;;;;;;;33.80;39.80;;;33.24;39.17;100772.72;12120212;19;21409;-82
2023/09/12 13:46:10;;;;;;;;;;;33.80;39.70;;;33.21;39.65;100764.22;12122426;19;21030;-82
2023/09/12 13:50:11;;;;;;;;;;;33.80;39.90;;;33.16;39.47;100761.38;12124967;19;19919;-87
2023/09/12 13:54:14;;;;;;;;;;;33.80;40.00;;;33.18;39.59;100761.97;12143792;19;19934;-86
2023/09/12 13:58:16;;;;;;;;;;;33.80;40.00;;;33.26;39.19;100772.47;12140189;19;20459;-87
2023/09/12 14:02:18;;;;;;;;;;;33.80;39.70;;;33.26;39.52;100767.88;12144468;19;20180;-85
2023/09/12 14:06:19;;;;;;;;;;;33.70;39.80;;;33.16;38.91;100751.41;12141725;19;19930;-85
2023/09/12 14:10:21;;;;;;;;;;;33.70;39.80;;;33.26;39.29;100764.34;12143251;19;19943;-84
2023/09/12 14:14:22;;;;;;;;;;;33.70;39.90;;;33.13;39.24;100741.00;12143506;19;19966;-85
2023/09/12 14:18:24;;;;;;;;;;;33.70;39.90;;;33.26;39.19;100761.63;12144532;19;19918;-85
2023/09/12 14:22:26;;;;;;;;;;;33.70;39.80;;;33.27;39.11;100774.13;12141211;19;19927;-85
2023/09/12 14:26:27;;;;;;;;;;;33.70;39.80;;;33.25;38.87;100766.22;12139694;19;19951;-85
2023/09/12 14:30:34;;;;;;;;;;;33.70;39.80;;;33.20;38.89;100757.16;12139839;19;19915;-84
2023/09/12 14:34:36;;;;;;;;;;;33.70;39.80;;;33.19;38.86;100752.78;12139878;19;19998;-85
2023/09/12 14:38:37;;;;;;;;;;;33.70;39.90;;;33.20;39.07;100749.03;12136926;19;20214;-85
2023/09/12 14:42:38;;;;;;;;;;;33.70;39.80;;;33.20;38.60;100746.34;12137069;19;20282;-85
2023/09/12 14:46:40;;;;;;;;;;;33.70;39.70;;;33.16;38.78;100745.13;12140646;19;20300;-85
2023/09/12 14:50:41;;;;;;;;;;;33.70;39.80;;;33.17;38.96;100746.81;12139402;19;19934;-85
2023/09/12 14:54:43;;;;;;;;;;;33.70;39.70;;;32.99;38.68;100728.75;12142609;19;19938;-84
2023/09/12 14:58:44;;;;;;;;;;;33.70;39.80;;;33.11;38.98;100762.09;12142347;19;20164;-85
2023/09/12 15:02:46;;;;;;;;;;;33.70;39.70;;;33.13;38.71;100775.38;12140351;19;20194;-85
2023/09/12 15:06:47;;;;;;;;;;;33.60;39.80;;;33.13;38.64;100778.09;12142262;19;19927;-85
2023/09/12 15:10:49;;;;;;;;;;;33.60;40.00;;;33.10;38.62;100775.84;12144165;19;20698;-85
2023/09/12 15:14:51;;;;;;;;;;;33.60;39.60;;;33.09;38.91;100780.44;12138749;19;19922;-85
2023/09/12 15:18:53;;;;;;;;;;;33.50;39.60;;;32.97;38.55;100766.03;12137279;19;19934;-85
2023/09/12 15:22:54;;;;;;;;;;;33.50;39.50;;;32.90;38.28;100758.03;12135375;19;19929;-85
2023/09/12 15:26:56;;;;;;;;;;;33.40;39.50;;;33.00;38.67;100773.66;12135285;19;19919;-86
2023/09/12 15:31:01;;;;;;;;;;;33.50;39.50;;;33.00;38.41;100765.56;12135409;19;20753;-86
2023/09/12 15:35:03;;;;;;;;;;;33.40;39.40;;;32.92;38.68;100749.66;12137893;19;19951;-86
2023/09/12 15:39:04;;;;;;;;;;;33.40;39.50;;;32.95;38.21;100755.44;12137601;19;20791;-86
2023/09/12 15:43:06;;;;;;;;;;;33.40;39.50;;;32.98;38.15;100760.38;12132758;19;20295;-86
2023/09/12 15:47:08;;;;;;;;;;;33.40;39.50;;;32.92;38.32;100757.78;12140694;19;19955;-86
2023/09/12 15:51:10;;;;;;;;;;;33.40;39.60;;;32.83;38.18;100758.09;12128260;19;19935;-86
2023/09/12 15:55:12;;;;;;;;;;;33.30;39.60;;;32.83;38.31;100781.63;12133482;19;20270;-83
2023/09/12 15:59:13;;;;;;;;;;;33.20;39.60;;;32.68;38.33;100773.13;12136613;19;19923;-86
2023/09/12 16:03:15;;;;;;;;;;;33.10;39.60;;;32.54;38.28;100772.47;12143466;19;19922;-86
2023/09/12 16:07:17;;;;;;;;;;;33.00;39.60;;;32.42;38.05;100760.75;12148562;19;19930;-86
2023/09/12 16:11:19;;;;;;;;;;;32.90;40.10;;;32.34;38.24;100761.91;12145954;19;20380;-86
2023/09/12 16:15:21;;;;;;;;;;;32.70;39.70;;;32.29;38.57;100767.16;12145163;19;19922;-87
2023/09/12 16:19:22;;;;;;;;;;;32.60;39.80;;;32.25;38.44;100771.38;12146360;19;20021;-87
2023/09/12 16:23:26;;;;;;;;;;;32.50;39.80;;;32.13;38.51;100772.13;12146821;19;20742;-86
2023/09/12 16:27:28;;;;;;;;;;;32.40;39.70;;;31.85;38.08;100729.41;12150236;19;20187;-86
2023/09/12 16:31:29;;;;;;;;;;;32.30;39.80;;;31.90;38.54;100759.28;12141228;19;19933;-86
2023/09/12 16:35:31;;;;;;;;;;;32.20;39.70;;;31.79;38.46;100754.63;12150747;19;20213;-86
2023/09/12 16:39:35;;;;;;;;;;;32.10;39.80;;;31.81;38.17;100765.19;12140598;19;19922;-87
2023/09/12 16:43:38;;;;;;;;;;;32.00;39.80;;;31.67;38.55;100765.31;12146724;19;20728;-86
2023/09/12 16:47:40;;;;;;;;;;;31.90;39.80;;;31.64;38.56;100768.47;12143605;19;19994;-85
2023/09/12 16:51:43;;;;;;;;;;;31.90;39.90;;;31.53;38.42;100775.44;12138247;19;20264;-86
2023/09/12 16:55:45;;;;;;;;;;;31.80;39.90;;;31.46;38.68;100774.69;12140075;19;19930;-86
2023/09/12 16:59:46;;;;;;;;;;;31.70;40.00;;;31.46;38.49;100779.22;12140696;19;20454;-86
2023/09/12 17:03:57;;;;;;;;;;;31.60;40.00;;;31.34;38.22;100771.00;12141462;19;20267;-86
2023/09/12 17:07:59;;;;;;;;;;;31.60;40.00;;;31.34;38.67;100779.09;12142331;19;19919;-85
2023/09/12 17:12:01;;;;;;;;;;;31.50;40.00;;;31.25;38.30;100789.34;12142415;19;19930;-86
2023/09/12 17:16:02;;;;;;;;;;;31.50;40.10;;;31.13;38.62;100780.31;12143695;19;19933;-85
2023/09/12 17:20:04;;;;;;;;;;;31.40;40.10;;;31.08;38.67;100796.31;12141828;19;19923;-86
2023/09/12 17:24:06;;;;;;;;;;;31.30;40.10;;;31.02;38.35;100794.50;12144329;19;19922;-87
2023/09/12 17:28:08;;;;;;;;;;;31.20;40.00;;;30.89;38.42;100798.09;12143551;19;20467;-86
2023/09/12 17:32:10;;;;;;;;;;;31.20;40.10;;;30.88;38.47;100799.16;12141883;19;20279;-86
2023/09/12 17:36:12;;;;;;;;;;;31.00;40.10;;;30.80;38.73;100802.09;12146679;19;20253;-86
2023/09/12 17:40:13;;;;;;;;;;;31.00;40.20;;;30.69;38.45;100787.41;12139134;19;19926;-86
2023/09/12 17:44:14;;;;;;;;;;;31.00;40.30;;;30.67;38.58;100794.06;12141421;19;20912;-88
2023/09/12 17:48:16;;;;;;;;;;;30.80;40.20;;;30.53;38.42;100787.91;12139688;19;20827;-84
2023/09/12 17:52:17;;;;;;;;;;;30.80;40.20;;;30.55;38.88;100810.09;12140365;19;20717;-85
2023/09/12 17:56:19;;;;;;;;;;;30.70;40.20;;;30.38;38.85;100799.81;12135761;19;19945;-85
2023/09/12 18:00:27;;;;;;;;;;;30.60;40.30;;;30.33;38.94;100798.81;12131128;19;20892;-85
2023/09/12 18:04:28;;;;;;;;;;;30.60;40.30;;;30.27;38.88;100808.53;12127288;19;19922;-85
2023/09/12 18:08:29;;;;;;;;;;;30.50;40.30;;;30.23;38.96;100818.09;12129636;19;20490;-85
2023/09/12 18:12:31;;;;;;;;;;;30.50;40.40;;;30.08;38.62;100814.78;12134453;19;19947;-85
2023/09/12 18:16:32;;;;;;;;;;;30.40;40.40;;;30.04;38.95;100819.78;12133417;19;19921;-85
2023/09/12 18:20:33;;;;;;;;;;;30.20;40.30;;;29.92;38.77;100810.66;12135610;19;20024;-85
2023/09/12 18:24:35;;;;;;;;;;;30.20;40.40;;;29.88;38.93;100815.66;12137215;19;19923;-85
2023/09/12 18:28:45;;;;;;;;;;;30.10;40.50;;;29.83;38.77;100838.88;12136372;19;20216;-84
2023/09/12 18:32:47;;;;;;;;;;;30.00;40.50;;;29.51;39.04;100796.41;12137975;19;19926;-84
2023/09/12 18:36:49;;;;;;;;;;;29.90;40.40;;;29.59;39.06;100822.28;12134443;19;20306;-84
2023/09/12 18:40:51;;;;;;;;;;;29.80;40.50;;;29.54;38.93;100835.53;12131794;19;19929;-84
2023/09/12 18:44:52;;;;;;;;;;;29.70;40.50;;;29.45;39.20;100837.59;12130129;19;19926;-87
2023/09/12 18:48:54;;;;;;;;;;;29.70;40.60;;;29.28;38.95;100821.03;12130435;19;19915;-85
2023/09/12 18:52:57;;;;;;;;;;;29.60;40.60;;;29.22;39.28;100827.25;12135106;19;19927;-85
2023/09/12 18:57:00;;;;;;;;;;;29.50;40.60;;;29.19;39.16;100832.19;12134898;19;19930;-85
2023/09/12 19:01:01;;;;;;;;;;;29.40;40.60;;;29.07;39.10;100819.34;12133785;19;20735;-85
2023/09/12 19:05:03;;;;;;;;;;;29.40;40.70;;;29.10;38.97;100845.84;12138568;19;19914;-85